Breakwater — WYH7020 — position and weather

sailwx.info

Track history (hours):
 
Tides and Currents Weather Stations Pressure Air Temp Water Temp Dewpoint Dewpoint Depression Visibility Wind Speed Wind Dir Waves Ship Positions

Breakwater

Owner: DELAWARE BAY LAUNCH SERVICE, Inc., MILFORD, DE. More information available from US FCC via Universal Licensing System and Coast Guard Vessel Documentation Center.

Last reported at 2018-Jan-20 03:14 UTC. Time now 2018-Jan-20 21:07 UTC.
Position N 38°56' W 075°19'.

Length 15 m; draft 1 m.

Type: Pilot. MMSI: 367090620.

Date/timePositionNaut miles runAvg speedWind from/ knotsBaromVisibWave heightAir tempDewpointWater temp
2018-Jan-20 03:14N 38°56' W 075°19'0 0.0
2018-Jan-20 03:01N 38°56' W 075°19'0 0.0
2018-Jan-20 02:30N 38°56' W 075°19'0 0.0
2018-Jan-20 02:00N 38°56' W 075°19'0 0.0
2018-Jan-20 01:30N 38°56' W 075°19'0 0.0
2018-Jan-20 00:59N 38°56' W 075°19'8 5.2
2018-Jan-19 23:20N 38°55' W 075°08'617.0
2018-Jan-19 22:58N 38°60' W 075°13'6 1.5
2018-Jan-19 19:16N 38°56' W 075°19'6 9.4
2018-Jan-19 18:41N 38°60' W 075°13'5 8.1
2018-Jan-19 18:03N 38°56' W 075°18'514.8
2018-Jan-19 17:43N 38°60' W 075°13'5 1.9
2018-Jan-19 14:58N 38°57' W 075°19'3 5.9
2018-Jan-19 14:30N 38°58' W 075°16'3 5.0
2018-Jan-19 13:57N 38°57' W 075°19'1 1.5
2018-Jan-19 13:14N 38°56' W 075°18'1 4.8
2018-Jan-19 13:00N 38°56' W 075°19'0 0.0
2018-Jan-19 12:30N 38°56' W 075°19'0 0.0
2018-Jan-19 12:00N 38°56' W 075°19'0 0.0
2018-Jan-19 11:30N 38°56' W 075°19'0 0.0
2018-Jan-19 11:00N 38°56' W 075°19'0 0.0
2018-Jan-19 10:08N 38°56' W 075°19'0 0.0
2018-Jan-19 09:55N 38°56' W 075°19'0 0.0
2018-Jan-19 09:30N 38°56' W 075°19'0 0.0
2018-Jan-19 08:59N 38°56' W 075°19'0 0.0
2018-Jan-19 08:30N 38°56' W 075°19'0 0.0
2018-Jan-19 06:21N 38°56' W 075°19'0 0.0
2018-Jan-19 05:50N 38°56' W 075°19'0 0.0
2018-Jan-19 05:30N 38°56' W 075°19'0 0.0
2018-Jan-19 05:00N 38°56' W 075°19'0 0.0
2018-Jan-19 04:17N 38°56' W 075°19'0 0.0
2018-Jan-19 03:44N 38°56' W 075°19'14 6.5
2018-Jan-19 01:36N 39°10' W 075°21'323.0
2018-Jan-19 01:30N 39°13' W 075°21'1223.8
2018-Jan-19 01:00N 39°23' W 075°28'1122.6
2018-Jan-19 00:31N 39°33' W 075°33'1224.0
2018-Jan-19 00:01N 39°45' W 075°29'713.0
2018-Jan-18 23:31N 39°50' W 075°23'0 0.0
2018-Jan-18 23:00N 39°50' W 075°23'0 0.0
2018-Jan-18 22:30N 39°50' W 075°23'4 8.1
2018-Jan-18 22:00N 39°47' W 075°27'3 6.7
2018-Jan-18 21:31N 39°49' W 075°24'1 1.5
2018-Jan-18 21:00N 39°50' W 075°23'4 4.6
2018-Jan-18 20:07N 39°47' W 075°27'1 7.2
2018-Jan-18 20:01N 39°47' W 075°26'3 6.6
2018-Jan-18 19:31N 39°50' W 075°23'4 8.7
2018-Jan-18 19:00N 39°47' W 075°27'2 4.8
2018-Jan-18 18:30N 39°48' W 075°25'1 2.0
2018-Jan-18 18:00N 39°48' W 075°26'1 2.5
2018-Jan-18 17:30N 39°47' W 075°27'2 4.8
2018-Jan-18 17:00N 39°48' W 075°25'2 3.7
2018-Jan-18 16:30N 39°50' W 075°23'0 0.0
2018-Jan-18 16:00N 39°50' W 075°23'0 0.0
2018-Jan-18 15:30N 39°50' W 075°23'1 2.3
2018-Jan-18 15:01N 39°49' W 075°24'1 1.7
2018-Jan-18 14:30N 39°48' W 075°25'2 4.4
2018-Jan-18 14:00N 39°47' W 075°27'0 0.4
2018-Jan-18 13:30N 39°47' W 075°27'1 1.2
2018-Jan-18 13:00N 39°47' W 075°27'4 7.2
2018-Jan-18 12:31N 39°50' W 075°23'1 1.0
2018-Jan-18 12:00N 39°49' W 075°23'3 5.8
2018-Jan-18 11:30N 39°48' W 075°27'3 6.7
2018-Jan-18 11:00N 39°50' W 075°23'0 0.2
2018-Jan-18 10:30N 39°50' W 075°23'0 0.0
2018-Jan-18 10:00N 39°50' W 075°23'0 0.0
2018-Jan-18 09:31N 39°50' W 075°23'4 8.1
2018-Jan-18 09:00N 39°47' W 075°27'4 8.2
2018-Jan-18 08:30N 39°50' W 075°23'0 0.0
2018-Jan-18 08:00N 39°50' W 075°23'0 0.0
2018-Jan-18 07:30N 39°50' W 075°23'2 3.6
2018-Jan-18 07:00N 39°48' W 075°25'2 3.1
2018-Jan-18 06:30N 39°48' W 075°26'3 6.6
2018-Jan-18 06:00N 39°50' W 075°23'3 6.0
2018-Jan-18 05:31N 39°48' W 075°26'1 1.6
2018-Jan-18 05:01N 39°47' W 075°27'4 7.3
2018-Jan-18 04:31N 39°49' W 075°23'0 0.4
2018-Jan-18 04:00N 39°50' W 075°23'3 7.1
2018-Jan-18 03:30N 39°47' W 075°27'3 7.0
2018-Jan-18 03:00N 39°50' W 075°23'0 0.0
2018-Jan-18 02:30N 39°50' W 075°23'2 4.3
2018-Jan-18 02:00N 39°48' W 075°25'2 4.4
2018-Jan-18 01:31N 39°50' W 075°23'0 0.1
2018-Jan-18 01:00N 39°50' W 075°23'0 0.1
2018-Jan-18 00:01N 39°49' W 075°23'0 2.3
2018-Jan-17 23:58N 39°50' W 075°23'  
2018-Jan-12 09:14N 38°56' W 075°19'0 0.0
2018-Jan-12 08:49N 38°56' W 075°19'0 0.0
2018-Jan-12 06:14N 38°56' W 075°19'0 0.0
2018-Jan-12 05:52N 38°56' W 075°19'0 0.0
2018-Jan-12 05:28N 38°56' W 075°19'0 0.0
2018-Jan-12 05:00N 38°56' W 075°19'0 0.0
2018-Jan-12 04:30N 38°56' W 075°19'0 0.0
2018-Jan-12 04:00N 38°56' W 075°19'0 0.0
2018-Jan-12 01:56N 38°56' W 075°19'0 0.0
2018-Jan-12 01:28N 38°56' W 075°19'0 0.0
2018-Jan-12 01:00N 38°56' W 075°19'0 0.0
2018-Jan-12 00:30N 38°56' W 075°19'0 0.0
2018-Jan-12 00:00N 38°56' W 075°19'0 0.0
2018-Jan-11 23:25N 38°56' W 075°19'0 0.0
2018-Jan-11 22:59N 38°56' W 075°19'0 0.0
2018-Jan-11 22:30N 38°56' W 075°19'0 0.0
2018-Jan-11 21:08N 38°56' W 075°19'0 0.0
2018-Jan-11 20:55N 38°56' W 075°19'6 5.4
2018-Jan-11 19:52N 39°00' W 075°14'0 0.0
2018-Jan-11 19:26N 39°00' W 075°14'6 1.5
2018-Jan-11 15:46N 38°56' W 075°19'0 0.0
2018-Jan-11 04:46N 38°56' W 075°19'413.7
2018-Jan-11 04:27N 38°55' W 075°14'818.1
2018-Jan-11 04:01N 38°48' W 075°09'4 8.2
2018-Jan-11 03:30N 38°50' W 075°05'4 7.8
2018-Jan-11 03:00N 38°48' W 075°09'915.6
2018-Jan-11 02:26N 38°55' W 075°15'3 6.6
2018-Jan-11 01:57N 38°56' W 075°19'0 0.0
2018-Jan-11 01:25N 38°56' W 075°19'0 0.0
2018-Jan-11 00:55N 38°56' W 075°19'0 0.0
2018-Jan-11 00:30N 38°56' W 075°19'0 0.0
2018-Jan-10 23:58N 38°56' W 075°19'0 0.0
2018-Jan-10 23:00N 38°56' W 075°19'1 0.9
2018-Jan-10 22:26N 38°57' W 075°18'510.1
2018-Jan-10 21:56N 39°00' W 075°14'3 7.6
2018-Jan-10 21:30N 38°57' W 075°16'2 3.9
2018-Jan-10 20:54N 38°56' W 075°19'613.7
2018-Jan-10 20:29N 39°00' W 075°14'0 0.0
2018-Jan-10 20:00N 39°00' W 075°14'5 5.7
2018-Jan-10 19:06N 38°57' W 075°19'513.9
2018-Jan-10 18:44N 39°00' W 075°14'0 0.0
2018-Jan-10 18:30N 39°00' W 075°14'6 6.9
2018-Jan-10 17:41N 38°56' W 075°19'1 0.4
2018-Jan-10 15:51N 38°57' W 075°18'5 6.1
2018-Jan-10 15:02N 38°59' W 075°13'0 0.1
2018-Jan-10 14:58N 38°59' W 075°13'3 6.8
2018-Jan-10 14:30N 38°57' W 075°10'712.3
2018-Jan-10 13:57N 38°56' W 075°19'510.9
2018-Jan-10 13:30N 38°55' W 075°13'5 9.1
2018-Jan-10 12:57N 38°60' W 075°13'611.8
2018-Jan-10 12:29N 38°56' W 075°19'0 0.0
2018-Jan-10 12:00N 38°56' W 075°19'  
Track history (hours):
 
Tides and Currents Weather Stations Pressure Air Temp Water Temp Dewpoint Dewpoint Depression Visibility Wind Speed Wind Dir Waves Ship Positions

Breakwater

Owner: DELAWARE BAY LAUNCH SERVICE, Inc., MILFORD, DE. More information available from US FCC via Universal Licensing System and Coast Guard Vessel Documentation Center.

Last reported at 2018-Jan-20 03:14 UTC. Time now 2018-Jan-20 21:07 UTC.
Position N 38°56' W 075°19'.

Length 15 m; draft 1 m.

Type: Pilot. MMSI: 367090620.

Date/timePositionNaut miles runAvg speedWind from/ knotsBaromVisibWave heightAir tempDewpointWater temp
2018-Jan-20 03:14N 38°56' W 075°19'0 0.0
2018-Jan-20 03:01N 38°56' W 075°19'0 0.0
2018-Jan-20 02:30N 38°56' W 075°19'0 0.0
2018-Jan-20 02:00N 38°56' W 075°19'0 0.0
2018-Jan-20 01:30N 38°56' W 075°19'0 0.0
2018-Jan-20 00:59N 38°56' W 075°19'8 5.2
2018-Jan-19 23:20N 38°55' W 075°08'617.0
2018-Jan-19 22:58N 38°60' W 075°13'6 1.5
2018-Jan-19 19:16N 38°56' W 075°19'6 9.4
2018-Jan-19 18:41N 38°60' W 075°13'5 8.1
2018-Jan-19 18:03N 38°56' W 075°18'514.8
2018-Jan-19 17:43N 38°60' W 075°13'5 1.9
2018-Jan-19 14:58N 38°57' W 075°19'3 5.9
2018-Jan-19 14:30N 38°58' W 075°16'3 5.0
2018-Jan-19 13:57N 38°57' W 075°19'1 1.5
2018-Jan-19 13:14N 38°56' W 075°18'1 4.8
2018-Jan-19 13:00N 38°56' W 075°19'0 0.0
2018-Jan-19 12:30N 38°56' W 075°19'0 0.0
2018-Jan-19 12:00N 38°56' W 075°19'0 0.0
2018-Jan-19 11:30N 38°56' W 075°19'0 0.0
2018-Jan-19 11:00N 38°56' W 075°19'0 0.0
2018-Jan-19 10:08N 38°56' W 075°19'0 0.0
2018-Jan-19 09:55N 38°56' W 075°19'0 0.0
2018-Jan-19 09:30N 38°56' W 075°19'0 0.0
2018-Jan-19 08:59N 38°56' W 075°19'0 0.0
2018-Jan-19 08:30N 38°56' W 075°19'0 0.0
2018-Jan-19 06:21N 38°56' W 075°19'0 0.0
2018-Jan-19 05:50N 38°56' W 075°19'0 0.0
2018-Jan-19 05:30N 38°56' W 075°19'0 0.0
2018-Jan-19 05:00N 38°56' W 075°19'0 0.0
2018-Jan-19 04:17N 38°56' W 075°19'0 0.0
2018-Jan-19 03:44N 38°56' W 075°19'14 6.5
2018-Jan-19 01:36N 39°10' W 075°21'323.0
2018-Jan-19 01:30N 39°13' W 075°21'1223.8
2018-Jan-19 01:00N 39°23' W 075°28'1122.6
2018-Jan-19 00:31N 39°33' W 075°33'1224.0
2018-Jan-19 00:01N 39°45' W 075°29'713.0
2018-Jan-18 23:31N 39°50' W 075°23'0 0.0
2018-Jan-18 23:00N 39°50' W 075°23'0 0.0
2018-Jan-18 22:30N 39°50' W 075°23'4 8.1
2018-Jan-18 22:00N 39°47' W 075°27'3 6.7
2018-Jan-18 21:31N 39°49' W 075°24'1 1.5
2018-Jan-18 21:00N 39°50' W 075°23'4 4.6
2018-Jan-18 20:07N 39°47' W 075°27'1 7.2
2018-Jan-18 20:01N 39°47' W 075°26'3 6.6
2018-Jan-18 19:31N 39°50' W 075°23'4 8.7
2018-Jan-18 19:00N 39°47' W 075°27'2 4.8
2018-Jan-18 18:30N 39°48' W 075°25'1 2.0
2018-Jan-18 18:00N 39°48' W 075°26'1 2.5
2018-Jan-18 17:30N 39°47' W 075°27'2 4.8
2018-Jan-18 17:00N 39°48' W 075°25'2 3.7
2018-Jan-18 16:30N 39°50' W 075°23'0 0.0
2018-Jan-18 16:00N 39°50' W 075°23'0 0.0
2018-Jan-18 15:30N 39°50' W 075°23'1 2.3
2018-Jan-18 15:01N 39°49' W 075°24'1 1.7
2018-Jan-18 14:30N 39°48' W 075°25'2 4.4
2018-Jan-18 14:00N 39°47' W 075°27'0 0.4
2018-Jan-18 13:30N 39°47' W 075°27'1 1.2
2018-Jan-18 13:00N 39°47' W 075°27'4 7.2
2018-Jan-18 12:31N 39°50' W 075°23'1 1.0
2018-Jan-18 12:00N 39°49' W 075°23'3 5.8
2018-Jan-18 11:30N 39°48' W 075°27'3 6.7
2018-Jan-18 11:00N 39°50' W 075°23'0 0.2
2018-Jan-18 10:30N 39°50' W 075°23'0 0.0
2018-Jan-18 10:00N 39°50' W 075°23'0 0.0
2018-Jan-18 09:31N 39°50' W 075°23'4 8.1
2018-Jan-18 09:00N 39°47' W 075°27'4 8.2
2018-Jan-18 08:30N 39°50' W 075°23'0 0.0
2018-Jan-18 08:00N 39°50' W 075°23'0 0.0
2018-Jan-18 07:30N 39°50' W 075°23'2 3.6
2018-Jan-18 07:00N 39°48' W 075°25'2 3.1
2018-Jan-18 06:30N 39°48' W 075°26'3 6.6
2018-Jan-18 06:00N 39°50' W 075°23'3 6.0
2018-Jan-18 05:31N 39°48' W 075°26'1 1.6
2018-Jan-18 05:01N 39°47' W 075°27'4 7.3
2018-Jan-18 04:31N 39°49' W 075°23'0 0.4
2018-Jan-18 04:00N 39°50' W 075°23'3 7.1
2018-Jan-18 03:30N 39°47' W 075°27'3 7.0
2018-Jan-18 03:00N 39°50' W 075°23'0 0.0
2018-Jan-18 02:30N 39°50' W 075°23'2 4.3
2018-Jan-18 02:00N 39°48' W 075°25'2 4.4
2018-Jan-18 01:31N 39°50' W 075°23'0 0.1
2018-Jan-18 01:00N 39°50' W 075°23'0 0.1
2018-Jan-18 00:01N 39°49' W 075°23'0 2.3
2018-Jan-17 23:58N 39°50' W 075°23'  
2018-Jan-12 09:14N 38°56' W 075°19'0 0.0
2018-Jan-12 08:49N 38°56' W 075°19'0 0.0
2018-Jan-12 06:14N 38°56' W 075°19'0 0.0
2018-Jan-12 05:52N 38°56' W 075°19'0 0.0
2018-Jan-12 05:28N 38°56' W 075°19'0 0.0
2018-Jan-12 05:00N 38°56' W 075°19'0 0.0
2018-Jan-12 04:30N 38°56' W 075°19'0 0.0
2018-Jan-12 04:00N 38°56' W 075°19'0 0.0
2018-Jan-12 01:56N 38°56' W 075°19'0 0.0
2018-Jan-12 01:28N 38°56' W 075°19'0 0.0
2018-Jan-12 01:00N 38°56' W 075°19'0 0.0
2018-Jan-12 00:30N 38°56' W 075°19'0 0.0
2018-Jan-12 00:00N 38°56' W 075°19'0 0.0
2018-Jan-11 23:25N 38°56' W 075°19'0 0.0
2018-Jan-11 22:59N 38°56' W 075°19'0 0.0
2018-Jan-11 22:30N 38°56' W 075°19'0 0.0
2018-Jan-11 21:08N 38°56' W 075°19'0 0.0
2018-Jan-11 20:55N 38°56' W 075°19'6 5.4
2018-Jan-11 19:52N 39°00' W 075°14'0 0.0
2018-Jan-11 19:26N 39°00' W 075°14'6 1.5
2018-Jan-11 15:46N 38°56' W 075°19'0 0.0
2018-Jan-11 04:46N 38°56' W 075°19'413.7
2018-Jan-11 04:27N 38°55' W 075°14'818.1
2018-Jan-11 04:01N 38°48' W 075°09'4 8.2
2018-Jan-11 03:30N 38°50' W 075°05'4 7.8
2018-Jan-11 03:00N 38°48' W 075°09'915.6
2018-Jan-11 02:26N 38°55' W 075°15'3 6.6
2018-Jan-11 01:57N 38°56' W 075°19'0 0.0
2018-Jan-11 01:25N 38°56' W 075°19'0 0.0
2018-Jan-11 00:55N 38°56' W 075°19'0 0.0
2018-Jan-11 00:30N 38°56' W 075°19'0 0.0
2018-Jan-10 23:58N 38°56' W 075°19'0 0.0
2018-Jan-10 23:00N 38°56' W 075°19'1 0.9
2018-Jan-10 22:26N 38°57' W 075°18'510.1
2018-Jan-10 21:56N 39°00' W 075°14'3 7.6
2018-Jan-10 21:30N 38°57' W 075°16'2 3.9
2018-Jan-10 20:54N 38°56' W 075°19'613.7
2018-Jan-10 20:29N 39°00' W 075°14'0 0.0
2018-Jan-10 20:00N 39°00' W 075°14'5 5.7
2018-Jan-10 19:06N 38°57' W 075°19'513.9
2018-Jan-10 18:44N 39°00' W 075°14'0 0.0
2018-Jan-10 18:30N 39°00' W 075°14'6 6.9
2018-Jan-10 17:41N 38°56' W 075°19'1 0.4
2018-Jan-10 15:51N 38°57' W 075°18'5 6.1
2018-Jan-10 15:02N 38°59' W 075°13'0 0.1
2018-Jan-10 14:58N 38°59' W 075°13'3 6.8
2018-Jan-10 14:30N 38°57' W 075°10'712.3
2018-Jan-10 13:57N 38°56' W 075°19'510.9
2018-Jan-10 13:30N 38°55' W 075°13'5 9.1
2018-Jan-10 12:57N 38°60' W 075°13'611.8
2018-Jan-10 12:29N 38°56' W 075°19'0 0.0
2018-Jan-10 12:00N 38°56' W 075°19'  

Dump ship's entire track history